sensor_id;sensor_type;location;lat;lon;timestamp;pressure;altitude;pressure_sealevel;temperature;humidity
39265;BME280;42646;51.910;7.724;2023-01-15T00:00:59;99215.38;;;7.07;100.00
39265;BME280;42646;51.910;7.724;2023-01-15T00:03:27;99203.50;;;6.93;100.00
39265;BME280;42646;51.910;7.724;2023-01-15T00:05:54;99197.75;;;6.80;100.00
39265;BME280;42646;51.910;7.724;2023-01-15T00:08:23;99205.19;;;6.76;100.00
39265;BME280;42646;51.910;7.724;2023-01-15T00:10:51;99214.66;;;6.69;100.00
39265;BME280;42646;51.910;7.724;2023-01-15T00:13:20;99225.00;;;6.62;100.00
39265;BME280;42646;51.910;7.724;2023-01-15T00:15:48;99222.56;;;6.51;100.00
39265;BME280;42646;51.910;7.724;2023-01-15T00:18:16;99211.06;;;6.42;100.00
39265;BME280;42646;51.910;7.724;2023-01-15T00:20:44;99216.50;;;6.41;100.00
39265;BME280;42646;51.910;7.724;2023-01-15T00:23:11;99224.63;;;6.30;100.00
39265;BME280;42646;51.910;7.724;2023-01-15T00:25:59;99223.69;;;6.21;100.00
39265;BME280;42646;51.910;7.724;2023-01-15T00:28:48;99224.00;;;6.18;100.00
39265;BME280;42646;51.910;7.724;2023-01-15T00:31:16;99202.31;;;6.14;100.00
39265;BME280;42646;51.910;7.724;2023-01-15T00:33:43;99189.09;;;6.14;100.00
39265;BME280;42646;51.910;7.724;2023-01-15T00:36:11;99201.25;;;6.07;100.00
39265;BME280;42646;51.910;7.724;2023-01-15T00:38:39;99204.88;;;6.06;100.00
39265;BME280;42646;51.910;7.724;2023-01-15T00:41:07;99202.22;;;6.06;100.00
39265;BME280;42646;51.910;7.724;2023-01-15T00:43:34;99209.16;;;6.07;100.00
39265;BME280;42646;51.910;7.724;2023-01-15T00:46:04;99211.00;;;5.97;100.00
39265;BME280;42646;51.910;7.724;2023-01-15T00:48:34;99207.38;;;5.98;100.00
39265;BME280;42646;51.910;7.724;2023-01-15T00:51:03;99206.03;;;5.94;100.00
39265;BME280;42646;51.910;7.724;2023-01-15T00:53:31;99193.66;;;5.95;100.00
39265;BME280;42646;51.910;7.724;2023-01-15T00:55:59;99204.03;;;5.86;100.00
39265;BME280;42646;51.910;7.724;2023-01-15T00:58:28;99205.88;;;5.96;100.00
39265;BME280;42646;51.910;7.724;2023-01-15T01:00:57;99209.75;;;5.92;100.00
39265;BME280;42646;51.910;7.724;2023-01-15T01:03:28;99206.84;;;5.85;100.00
39265;BME280;42646;51.910;7.724;2023-01-15T01:05:59;99198.09;;;5.84;100.00
39265;BME280;42646;51.910;7.724;2023-01-15T01:08:27;99203.13;;;5.78;100.00
39265;BME280;42646;51.910;7.724;2023-01-15T01:11:03;99204.09;;;5.77;100.00
39265;BME280;42646;51.910;7.724;2023-01-15T01:13:32;99207.41;;;5.79;100.00
39265;BME280;42646;51.910;7.724;2023-01-15T01:16:00;99210.19;;;5.77;100.00
39265;BME280;42646;51.910;7.724;2023-01-15T01:18:30;99211.03;;;5.78;100.00
39265;BME280;42646;51.910;7.724;2023-01-15T01:20:59;99207.25;;;5.80;100.00
39265;BME280;42646;51.910;7.724;2023-01-15T01:23:26;99218.28;;;5.76;100.00
39265;BME280;42646;51.910;7.724;2023-01-15T01:25:56;99199.34;;;5.80;100.00
39265;BME280;42646;51.910;7.724;2023-01-15T01:28:24;99221.44;;;5.79;100.00
39265;BME280;42646;51.910;7.724;2023-01-15T01:30:53;99225.22;;;5.77;100.00
39265;BME280;42646;51.910;7.724;2023-01-15T01:33:23;99226.19;;;5.76;100.00
39265;BME280;42646;51.910;7.724;2023-01-15T01:35:52;99229.50;;;5.78;100.00
39265;BME280;42646;51.910;7.724;2023-01-15T01:38:19;99233.94;;;5.77;100.00
39265;BME280;42646;51.910;7.724;2023-01-15T01:40:47;99238.41;;;5.77;100.00
39265;BME280;42646;51.910;7.724;2023-01-15T01:43:20;99235.75;;;5.77;100.00
39265;BME280;42646;51.910;7.724;2023-01-15T01:45:48;99234.34;;;5.82;100.00
39265;BME280;42646;51.910;7.724;2023-01-15T01:48:19;99251.28;;;5.80;100.00
39265;BME280;42646;51.910;7.724;2023-01-15T01:50:48;99250.47;;;5.79;100.00
39265;BME280;42646;51.910;7.724;2023-01-15T01:53:22;99247.81;;;5.79;100.00
39265;BME280;42646;51.910;7.724;2023-01-15T01:55:51;99246.31;;;5.77;100.00
39265;BME280;42646;51.910;7.724;2023-01-15T01:58:24;99249.78;;;5.77;100.00
39265;BME280;42646;51.910;7.724;2023-01-15T02:00:54;99246.47;;;5.75;100.00
39265;BME280;42646;51.910;7.724;2023-01-15T02:03:30;99254.91;;;5.79;100.00
39265;BME280;42646;51.910;7.724;2023-01-15T02:06:06;99249.94;;;5.76;100.00
39265;BME280;42646;51.910;7.724;2023-01-15T02:08:37;99232.16;;;5.78;100.00
39265;BME280;42646;51.910;7.724;2023-01-15T02:11:12;99240.22;;;5.76;100.00
39265;BME280;42646;51.910;7.724;2023-01-15T02:13:52;99241.19;;;5.75;100.00
39265;BME280;42646;51.910;7.724;2023-01-15T02:16:23;99236.75;;;5.76;100.00
39265;BME280;42646;51.910;7.724;2023-01-15T02:18:58;99243.69;;;5.77;100.00
39265;BME280;42646;51.910;7.724;2023-01-15T02:21:38;99242.69;;;5.78;100.00
39265;BME280;42646;51.910;7.724;2023-01-15T02:24:13;99239.91;;;5.79;100.00
39265;BME280;42646;51.910;7.724;2023-01-15T02:26:59;99230.47;;;5.77;100.00
39265;BME280;42646;51.910;7.724;2023-01-15T02:29:35;99230.19;;;5.80;100.00
39265;BME280;42646;51.910;7.724;2023-01-15T02:32:09;99242.41;;;5.81;100.00
39265;BME280;42646;51.910;7.724;2023-01-15T02:34:43;99239.06;;;5.79;100.00
39265;BME280;42646;51.910;7.724;2023-01-15T02:37:19;99239.75;;;5.81;100.00
39265;BME280;42646;51.910;7.724;2023-01-15T02:39:51;99233.53;;;5.82;100.00
39265;BME280;42646;51.910;7.724;2023-01-15T02:42:27;99229.91;;;5.83;100.00
39265;BME280;42646;51.910;7.724;2023-01-15T02:44:57;99230.59;;;5.85;100.00
39265;BME280;42646;51.910;7.724;2023-01-15T02:47:30;99221.00;;;5.84;100.00
39265;BME280;42646;51.910;7.724;2023-01-15T02:50:04;99215.19;;;5.80;100.00
39265;BME280;42646;51.910;7.724;2023-01-15T02:52:41;99221.69;;;5.86;100.00
39265;BME280;42646;51.910;7.724;2023-01-15T02:55:15;99226.56;;;5.81;100.00
39265;BME280;42646;51.910;7.724;2023-01-15T02:57:47;99222.53;;;5.86;100.00
39265;BME280;42646;51.910;7.724;2023-01-15T03:00:20;99224.06;;;5.89;100.00
39265;BME280;42646;51.910;7.724;2023-01-15T03:02:55;99219.34;;;5.83;100.00
39265;BME280;42646;51.910;7.724;2023-01-15T03:05:27;99226.28;;;5.84;100.00
39265;BME280;42646;51.910;7.724;2023-01-15T03:07:59;99217.41;;;5.85;100.00
39265;BME280;42646;51.910;7.724;2023-01-15T03:10:38;99203.38;;;5.84;100.00
39265;BME280;42646;51.910;7.724;2023-01-15T03:13:39;99202.94;;;5.89;100.00
39265;BME280;42646;51.910;7.724;2023-01-15T03:16:13;99205.84;;;5.86;100.00
39265;BME280;42646;51.910;7.724;2023-01-15T03:19:13;99213.25;;;5.82;100.00
39265;BME280;42646;51.910;7.724;2023-01-15T03:21:52;99207.66;;;5.85;100.00
39265;BME280;42646;51.910;7.724;2023-01-15T03:24:28;99208.94;;;5.91;100.00
39265;BME280;42646;51.910;7.724;2023-01-15T03:26:58;99203.38;;;5.84;100.00
39265;BME280;42646;51.910;7.724;2023-01-15T03:29:32;99197.81;;;5.87;100.00
39265;BME280;42646;51.910;7.724;2023-01-15T03:32:06;99181.44;;;5.94;100.00
39265;BME280;42646;51.910;7.724;2023-01-15T03:34:37;99172.25;;;5.88;100.00
39265;BME280;42646;51.910;7.724;2023-01-15T03:37:07;99177.53;;;5.88;100.00
39265;BME280;42646;51.910;7.724;2023-01-15T03:39:37;99171.97;;;5.91;100.00
39265;BME280;42646;51.910;7.724;2023-01-15T03:42:28;99168.78;;;5.87;100.00
39265;BME280;42646;51.910;7.724;2023-01-15T03:45:08;99177.66;;;5.86;100.00
39265;BME280;42646;51.910;7.724;2023-01-15T03:47:48;99174.06;;;5.87;100.00
39265;BME280;42646;51.910;7.724;2023-01-15T03:50:27;99172.69;;;5.83;100.00
39265;BME280;42646;51.910;7.724;2023-01-15T03:53:05;99175.88;;;5.87;100.00
39265;BME280;42646;51.910;7.724;2023-01-15T03:55:50;99181.84;;;5.89;100.00
39265;BME280;42646;51.910;7.724;2023-01-15T03:58:25;99174.63;;;5.91;100.00
39265;BME280;42646;51.910;7.724;2023-01-15T04:01:00;99175.72;;;5.88;100.00
39265;BME280;42646;51.910;7.724;2023-01-15T04:03:33;99163.63;;;5.86;100.00
39265;BME280;42646;51.910;7.724;2023-01-15T04:06:04;99189.47;;;5.92;100.00
39265;BME280;42646;51.910;7.724;2023-01-15T04:08:38;99176.56;;;5.89;100.00
39265;BME280;42646;51.910;7.724;2023-01-15T04:11:07;99178.78;;;5.84;100.00
39265;BME280;42646;51.910;7.724;2023-01-15T04:13:41;99170.19;;;5.82;100.00
39265;BME280;42646;51.910;7.724;2023-01-15T04:16:27;99176.28;;;5.92;100.00
39265;BME280;42646;51.910;7.724;2023-01-15T04:18:58;99186.00;;;5.92;100.00
39265;BME280;42646;51.910;7.724;2023-01-15T04:21:27;99173.63;;;5.92;100.00
39265;BME280;42646;51.910;7.724;2023-01-15T04:23:57;99178.50;;;5.97;100.00
39265;BME280;42646;51.910;7.724;2023-01-15T04:26:25;99179.91;;;5.91;100.00
39265;BME280;42646;51.910;7.724;2023-01-15T04:28:53;99174.91;;;5.88;100.00
39265;BME280;42646;51.910;7.724;2023-01-15T04:31:21;99172.94;;;5.90;100.00
39265;BME280;42646;51.910;7.724;2023-01-15T04:33:50;99182.25;;;5.94;100.00
39265;BME280;42646;51.910;7.724;2023-01-15T04:36:19;99186.00;;;5.92;100.00
39265;BME280;42646;51.910;7.724;2023-01-15T04:38:48;99177.38;;;5.89;100.00
39265;BME280;42646;51.910;7.724;2023-01-15T04:41:16;99174.91;;;5.88;100.00
39265;BME280;42646;51.910;7.724;2023-01-15T04:44:01;99189.34;;;5.94;100.00
39265;BME280;42646;51.910;7.724;2023-01-15T04:46:36;99193.09;;;5.91;100.00
39265;BME280;42646;51.910;7.724;2023-01-15T04:49:10;99187.81;;;5.91;100.00
39265;BME280;42646;51.910;7.724;2023-01-15T04:51:39;99177.38;;;5.99;100.00
39265;BME280;42646;51.910;7.724;2023-01-15T04:54:08;99196.56;;;5.92;100.00
39265;BME280;42646;51.910;7.724;2023-01-15T04:56:38;99189.19;;;5.85;100.00
39265;BME280;42646;51.910;7.724;2023-01-15T04:59:07;99192.66;;;5.86;100.00
39265;BME280;42646;51.910;7.724;2023-01-15T05:01:35;99195.03;;;5.89;100.00
39265;BME280;42646;51.910;7.724;2023-01-15T05:04:07;99182.94;;;5.96;100.00
39265;BME280;42646;51.910;7.724;2023-01-15T05:06:35;99188.22;;;5.86;100.00
39265;BME280;42646;51.910;7.724;2023-01-15T05:09:07;99187.38;;;5.86;100.00
39265;BME280;42646;51.910;7.724;2023-01-15T05:11:36;99179.19;;;5.89;100.00
39265;BME280;42646;51.910;7.724;2023-01-15T05:14:06;99181.28;;;5.85;100.00
39265;BME280;42646;51.910;7.724;2023-01-15T05:16:34;99176.56;;;5.89;100.00
39265;BME280;42646;51.910;7.724;2023-01-15T05:19:04;99174.91;;;5.88;100.00
39265;BME280;42646;51.910;7.724;2023-01-15T05:21:38;99178.78;;;5.84;100.00
39265;BME280;42646;51.910;7.724;2023-01-15T05:24:07;99183.78;;;5.87;100.00
39265;BME280;42646;51.910;7.724;2023-01-15T05:26:36;99182.94;;;5.86;100.00
39265;BME280;42646;51.910;7.724;2023-01-15T05:29:05;99172.84;;;5.82;100.00
39265;BME280;42646;51.910;7.724;2023-01-15T05:31:57;99177.13;;;5.83;100.00
39265;BME280;42646;51.910;7.724;2023-01-15T05:34:25;99181.44;;;5.84;100.00
39265;BME280;42646;51.910;7.724;2023-01-15T05:36:55;99174.19;;;5.86;100.00
39265;BME280;42646;51.910;7.724;2023-01-15T05:39:23;99183.25;;;5.83;100.00
39265;BME280;42646;51.910;7.724;2023-01-15T05:41:52;99180.28;;;5.86;100.00
39265;BME280;42646;51.910;7.724;2023-01-15T05:44:21;99183.78;;;5.87;100.00
39265;BME280;42646;51.910;7.724;2023-01-15T05:46:51;99190.56;;;5.89;100.00
39265;BME280;42646;51.910;7.724;2023-01-15T05:49:22;99188.53;;;5.83;100.00
39265;BME280;42646;51.910;7.724;2023-01-15T05:51:52;99197.81;;;5.87;100.00
39265;BME280;42646;51.910;7.724;2023-01-15T05:54:23;99190.84;;;5.86;100.00
39265;BME280;42646;51.910;7.724;2023-01-15T05:56:52;99204.03;;;5.86;100.00
39265;BME280;42646;51.910;7.724;2023-01-15T05:59:22;99202.78;;;5.90;100.00
39265;BME280;42646;51.910;7.724;2023-01-15T06:01:51;99194.47;;;5.85;100.00
39265;BME280;42646;51.910;7.724;2023-01-15T06:04:43;99200.72;;;5.84;100.00
39265;BME280;42646;51.910;7.724;2023-01-15T06:07:11;99189.75;;;5.89;100.00
39265;BME280;42646;51.910;7.724;2023-01-15T06:09:40;99190.72;;;5.88;100.00
39265;BME280;42646;51.910;7.724;2023-01-15T06:12:12;99196.00;;;5.88;100.00
39265;BME280;42646;51.910;7.724;2023-01-15T06:14:40;99196.81;;;5.98;100.00
39265;BME280;42646;51.910;7.724;2023-01-15T06:17:08;99201.84;;;5.92;100.00
39265;BME280;42646;51.910;7.724;2023-01-15T06:19:36;99195.03;;;5.89;100.00
39265;BME280;42646;51.910;7.724;2023-01-15T06:22:05;99193.66;;;5.95;100.00
39265;BME280;42646;51.910;7.724;2023-01-15T06:24:36;99201.41;;;5.96;100.00
39265;BME280;42646;51.910;7.724;2023-01-15T06:27:06;99195.72;;;6.01;100.00
39265;BME280;42646;51.910;7.724;2023-01-15T06:29:37;99197.41;;;5.92;100.00
39265;BME280;42646;51.910;7.724;2023-01-15T06:32:05;99190.19;;;5.94;100.00
39265;BME280;42646;51.910;7.724;2023-01-15T06:34:33;99191.41;;;5.90;100.00
39265;BME280;42646;51.910;7.724;2023-01-15T06:37:01;99183.78;;;5.97;100.00
39265;BME280;42646;51.910;7.724;2023-01-15T06:39:29;99190.13;;;6.04;100.00
39265;BME280;42646;51.910;7.724;2023-01-15T06:41:56;99192.66;;;5.96;100.00
39265;BME280;42646;51.910;7.724;2023-01-15T06:44:44;99191.09;;;6.03;100.00
39265;BME280;42646;51.910;7.724;2023-01-15T06:47:29;99194.06;;;6.00;100.00
39265;BME280;42646;51.910;7.724;2023-01-15T06:49:57;99198.94;;;5.95;100.00
39265;BME280;42646;51.910;7.724;2023-01-15T06:52:27;99205.03;;;5.95;100.00
39265;BME280;42646;51.910;7.724;2023-01-15T06:54:55;99203.91;;;5.98;100.00
39265;BME280;42646;51.910;7.724;2023-01-15T06:57:23;99207.25;;;6.00;100.00
39265;BME280;42646;51.910;7.724;2023-01-15T07:00:00;99215.41;;;6.06;100.00
39265;BME280;42646;51.910;7.724;2023-01-15T07:02:28;99215.84;;;6.02;100.00
39265;BME280;42646;51.910;7.724;2023-01-15T07:04:55;99213.06;;;6.03;100.00
39265;BME280;42646;51.910;7.724;2023-01-15T07:07:26;99218.22;;;6.05;100.00
39265;BME280;42646;51.910;7.724;2023-01-15T07:09:58;99208.59;;;6.04;100.00
39265;BME280;42646;51.910;7.724;2023-01-15T07:12:26;99220.28;;;6.11;100.00
39265;BME280;42646;51.910;7.724;2023-01-15T07:14:54;99211.78;;;6.07;100.00
39265;BME280;42646;51.910;7.724;2023-01-15T07:17:23;99211.97;;;5.96;100.00
39265;BME280;42646;51.910;7.724;2023-01-15T07:19:52;99207.38;;;5.98;100.00
39265;BME280;42646;51.910;7.724;2023-01-15T07:22:23;99210.13;;;6.06;100.00
39265;BME280;42646;51.910;7.724;2023-01-15T07:24:51;99199.59;;;6.06;100.00
39265;BME280;42646;51.910;7.724;2023-01-15T07:27:19;99194.53;;;6.13;100.00
39265;BME280;42646;51.910;7.724;2023-01-15T07:29:46;99190.00;;;6.05;100.00
39265;BME280;42646;51.910;7.724;2023-01-15T07:32:15;99191.81;;;6.05;100.00
39265;BME280;42646;51.910;7.724;2023-01-15T07:34:44;99181.25;;;6.05;100.00
39265;BME280;42646;51.910;7.724;2023-01-15T07:37:12;99190.53;;;6.09;100.00
39265;BME280;42646;51.910;7.724;2023-01-15T07:39:42;99189.94;;;6.15;100.00
39265;BME280;42646;51.910;7.724;2023-01-15T07:42:10;99185.56;;;6.06;100.00
39265;BME280;42646;51.910;7.724;2023-01-15T07:44:55;99193.00;;;6.10;100.00
39265;BME280;42646;51.910;7.724;2023-01-15T07:47:40;99206.22;;;6.10;100.00
39265;BME280;42646;51.910;7.724;2023-01-15T07:50:28;99209.00;;;6.09;100.00
39265;BME280;42646;51.910;7.724;2023-01-15T07:52:57;99200.09;;;6.10;100.00
39265;BME280;42646;51.910;7.724;2023-01-15T07:55:25;99210.97;;;6.07;100.00
39265;BME280;42646;51.910;7.724;2023-01-15T07:57:53;99207.50;;;6.06;100.00
39265;BME280;42646;51.910;7.724;2023-01-15T08:00:24;99218.72;;;6.08;100.00
39265;BME280;42646;51.910;7.724;2023-01-15T08:02:52;99209.44;;;6.04;100.00
39265;BME280;42646;51.910;7.724;2023-01-15T08:05:28;99207.25;;;6.00;100.00
39265;BME280;42646;51.910;7.724;2023-01-15T08:07:56;99209.00;;;6.09;100.00
39265;BME280;42646;51.910;7.724;2023-01-15T08:10:24;99222.50;;;6.06;100.00
39265;BME280;42646;51.910;7.724;2023-01-15T08:12:52;99228.19;;;6.11;100.00
39265;BME280;42646;51.910;7.724;2023-01-15T08:15:39;99225.16;;;6.06;100.00
39265;BME280;42646;51.910;7.724;2023-01-15T08:18:09;99220.56;;;5.98;100.00
39265;BME280;42646;51.910;7.724;2023-01-15T08:20:38;99229.59;;;6.05;100.00
39265;BME280;42646;51.910;7.724;2023-01-15T08:23:06;99234.75;;;5.97;100.00
39265;BME280;42646;51.910;7.724;2023-01-15T08:25:35;99245.47;;;5.96;100.00
39265;BME280;42646;51.910;7.724;2023-01-15T08:28:03;99233.06;;;6.06;100.00
39265;BME280;42646;51.910;7.724;2023-01-15T08:30:31;99245.03;;;6.00;100.00
39265;BME280;42646;51.910;7.724;2023-01-15T08:32:59;99233.19;;;6.04;100.00
39265;BME280;42646;51.910;7.724;2023-01-15T08:35:29;99241.84;;;5.97;100.00
39265;BME280;42646;51.910;7.724;2023-01-15T08:38:03;99246.28;;;6.06;99.96
39265;BME280;42646;51.910;7.724;2023-01-15T08:40:31;99252.53;;;5.95;100.00
39265;BME280;42646;51.910;7.724;2023-01-15T08:42:59;99250.59;;;5.97;98.85
39265;BME280;42646;51.910;7.724;2023-01-15T08:45:26;99248.63;;;5.89;98.74
39265;BME280;42646;51.910;7.724;2023-01-15T08:47:54;99244.50;;;5.87;99.78
39265;BME280;42646;51.910;7.724;2023-01-15T08:50:23;99253.81;;;5.91;99.45
39265;BME280;42646;51.910;7.724;2023-01-15T08:52:53;99247.81;;;5.89;99.09
39265;BME280;42646;51.910;7.724;2023-01-15T08:55:22;99244.19;;;5.90;99.53
39265;BME280;42646;51.910;7.724;2023-01-15T08:57:50;99251.28;;;5.89;100.00
39265;BME280;42646;51.910;7.724;2023-01-15T09:00:20;99258.81;;;5.94;98.75
39265;BME280;42646;51.910;7.724;2023-01-15T09:02:50;99244.91;;;5.92;98.53
39265;BME280;42646;51.910;7.724;2023-01-15T09:05:18;99252.41;;;5.87;98.87
39265;BME280;42646;51.910;7.724;2023-01-15T09:07:46;99259.34;;;5.88;99.19
39265;BME280;42646;51.910;7.724;2023-01-15T09:10:14;99259.47;;;5.86;99.03
39265;BME280;42646;51.910;7.724;2023-01-15T09:12:44;99258.78;;;5.84;99.28
39265;BME280;42646;51.910;7.724;2023-01-15T09:15:11;99251.56;;;5.86;98.45
39265;BME280;42646;51.910;7.724;2023-01-15T09:17:39;99259.47;;;5.96;95.90
39265;BME280;42646;51.910;7.724;2023-01-15T09:20:11;99253.38;;;5.96;94.76
39265;BME280;42646;51.910;7.724;2023-01-15T09:22:39;99235.56;;;5.98;94.39
39265;BME280;42646;51.910;7.724;2023-01-15T09:25:07;99255.19;;;5.95;93.71
39265;BME280;42646;51.910;7.724;2023-01-15T09:27:35;99249.91;;;5.95;94.46
39265;BME280;42646;51.910;7.724;2023-01-15T09:30:06;99273.66;;;5.95;95.45
39265;BME280;42646;51.910;7.724;2023-01-15T09:32:34;99263.78;;;5.97;95.89
39265;BME280;42646;51.910;7.724;2023-01-15T09:35:04;99266.28;;;5.99;96.58
39265;BME280;42646;51.910;7.724;2023-01-15T09:37:31;99250.16;;;6.02;96.53
39265;BME280;42646;51.910;7.724;2023-01-15T09:39:59;99250.56;;;6.07;96.51
39265;BME280;42646;51.910;7.724;2023-01-15T09:42:35;99256.38;;;6.10;96.37
39265;BME280;42646;51.910;7.724;2023-01-15T09:45:21;99260.63;;;6.31;94.14
39265;BME280;42646;51.910;7.724;2023-01-15T09:48:12;99254.59;;;6.38;92.34
39265;BME280;42646;51.910;7.724;2023-01-15T09:50:53;99264.97;;;6.50;89.69
39265;BME280;42646;51.910;7.724;2023-01-15T09:53:36;99261.94;;;6.45;89.81
39265;BME280;42646;51.910;7.724;2023-01-15T09:56:13;99258.47;;;6.44;88.17
39265;BME280;42646;51.910;7.724;2023-01-15T09:58:43;99248.50;;;6.38;89.19
39265;BME280;42646;51.910;7.724;2023-01-15T10:01:15;99256.38;;;6.48;89.81
39265;BME280;42646;51.910;7.724;2023-01-15T10:03:50;99248.66;;;6.36;90.45
39265;BME280;42646;51.910;7.724;2023-01-15T10:06:26;99255.84;;;6.44;89.92
39265;BME280;42646;51.910;7.724;2023-01-15T10:09:01;99259.41;;;6.53;89.71
39265;BME280;42646;51.910;7.724;2023-01-15T10:11:35;99256.78;;;6.53;88.93
39265;BME280;42646;51.910;7.724;2023-01-15T10:14:31;99261.13;;;6.44;89.51
39265;BME280;42646;51.910;7.724;2023-01-15T10:17:16;99255.09;;;6.52;88.62
39265;BME280;42646;51.910;7.724;2023-01-15T10:19:45;99276.38;;;6.50;88.45
39265;BME280;42646;51.910;7.724;2023-01-15T10:22:23;99270.66;;;6.55;86.50
39265;BME280;42646;51.910;7.724;2023-01-15T10:24:56;99277.22;;;6.51;86.08
39265;BME280;42646;51.910;7.724;2023-01-15T10:27:26;99273.59;;;6.52;87.01
39265;BME280;42646;51.910;7.724;2023-01-15T10:30:00;99281.50;;;6.52;87.22
39265;BME280;42646;51.910;7.724;2023-01-15T10:32:42;99260.84;;;6.47;88.10
39265;BME280;42646;51.910;7.724;2023-01-15T10:35:32;99256.06;;;6.51;88.09
39265;BME280;42646;51.910;7.724;2023-01-15T10:38:11;99269.53;;;6.57;86.27
39265;BME280;42646;51.910;7.724;2023-01-15T10:40:59;99264.78;;;6.61;85.66
39265;BME280;42646;51.910;7.724;2023-01-15T10:43:39;99262.97;;;6.61;86.29
39265;BME280;42646;51.910;7.724;2023-01-15T10:46:11;99273.38;;;6.63;85.96
39265;BME280;42646;51.910;7.724;2023-01-15T10:48:45;99263.56;;;6.55;86.44
39265;BME280;42646;51.910;7.724;2023-01-15T10:51:18;99271.72;;;6.62;85.46
39265;BME280;42646;51.910;7.724;2023-01-15T10:53:50;99267.66;;;6.67;86.11
39265;BME280;42646;51.910;7.724;2023-01-15T10:56:30;99267.97;;;6.64;86.21
39265;BME280;42646;51.910;7.724;2023-01-15T10:59:07;99276.81;;;6.73;87.00
39265;BME280;42646;51.910;7.724;2023-01-15T11:01:38;99266.84;;;6.67;84.80
39265;BME280;42646;51.910;7.724;2023-01-15T11:04:10;99280.22;;;6.65;86.17
39265;BME280;42646;51.910;7.724;2023-01-15T11:06:39;99286.81;;;6.79;84.86
39265;BME280;42646;51.910;7.724;2023-01-15T11:09:18;99265.72;;;6.87;84.66
39265;BME280;42646;51.910;7.724;2023-01-15T11:11:48;99282.06;;;6.83;84.18
39265;BME280;42646;51.910;7.724;2023-01-15T11:14:36;99267.03;;;6.83;83.62
39265;BME280;42646;51.910;7.724;2023-01-15T11:17:22;99252.25;;;6.90;83.06
39265;BME280;42646;51.910;7.724;2023-01-15T11:20:24;99259.50;;;6.88;84.23
39265;BME280;42646;51.910;7.724;2023-01-15T11:22:54;99256.84;;;6.88;84.18
39265;BME280;42646;51.910;7.724;2023-01-15T11:25:27;99249.16;;;6.95;82.23
39265;BME280;42646;51.910;7.724;2023-01-15T11:27:58;99260.84;;;6.92;83.09
39265;BME280;42646;51.910;7.724;2023-01-15T11:30:29;99277.75;;;7.00;82.02
39265;BME280;42646;51.910;7.724;2023-01-15T11:33:00;99270.31;;;6.95;82.69
39265;BME280;42646;51.910;7.724;2023-01-15T11:35:33;99270.00;;;7.16;80.94
39265;BME280;42646;51.910;7.724;2023-01-15T11:38:04;99279.13;;;7.04;80.93
39265;BME280;42646;51.910;7.724;2023-01-15T11:40:33;99274.06;;;7.10;79.59
39265;BME280;42646;51.910;7.724;2023-01-15T11:43:01;99256.94;;;6.96;80.17
39265;BME280;42646;51.910;7.724;2023-01-15T11:45:51;99257.91;;;6.95;81.93
39265;BME280;42646;51.910;7.724;2023-01-15T11:48:44;99255.44;;;7.12;80.32
39265;BME280;42646;51.910;7.724;2023-01-15T11:51:37;99255.44;;;7.12;79.66
39265;BME280;42646;51.910;7.724;2023-01-15T11:54:10;99255.66;;;7.01;80.86
39265;BME280;42646;51.910;7.724;2023-01-15T11:56:43;99270.53;;;7.02;81.10
39265;BME280;42646;51.910;7.724;2023-01-15T11:59:14;99243.78;;;7.05;79.66
39265;BME280;42646;51.910;7.724;2023-01-15T12:01:49;99241.00;;;7.06;79.85
39265;BME280;42646;51.910;7.724;2023-01-15T12:04:28;99239.91;;;7.17;77.51
39265;BME280;42646;51.910;7.724;2023-01-15T12:06:59;99233.97;;;7.15;78.30
39265;BME280;42646;51.910;7.724;2023-01-15T12:09:38;99239.03;;;7.08;79.80
39265;BME280;42646;51.910;7.724;2023-01-15T12:12:21;99246.34;;;7.14;80.18
39265;BME280;42646;51.910;7.724;2023-01-15T12:15:12;99243.88;;;7.31;77.23
39265;BME280;42646;51.910;7.724;2023-01-15T12:18:03;99252.47;;;7.33;76.62
39265;BME280;42646;51.910;7.724;2023-01-15T12:20:50;99249.16;;;7.13;77.44
39265;BME280;42646;51.910;7.724;2023-01-15T12:23:36;99237.16;;;7.18;77.04
39265;BME280;42646;51.910;7.724;2023-01-15T12:26:14;99219.31;;;7.20;78.12
39265;BME280;42646;51.910;7.724;2023-01-15T12:28:53;99240.19;;;7.23;76.50
39265;BME280;42646;51.910;7.724;2023-01-15T12:31:29;99226.34;;;7.30;76.40
39265;BME280;42646;51.910;7.724;2023-01-15T12:34:06;99234.19;;;7.21;77.93
39265;BME280;42646;51.910;7.724;2023-01-15T12:36:37;99226.09;;;7.23;77.88
39265;BME280;42646;51.910;7.724;2023-01-15T12:39:16;99224.59;;;7.20;78.38
39265;BME280;42646;51.910;7.724;2023-01-15T12:41:47;99219.16;;;7.22;78.18
39265;BME280;42646;51.910;7.724;2023-01-15T12:44:39;99220.44;;;7.18;78.85
39265;BME280;42646;51.910;7.724;2023-01-15T12:47:35;99226.78;;;7.25;77.91
39265;BME280;42646;51.910;7.724;2023-01-15T12:50:18;99219.16;;;7.22;78.02
39265;BME280;42646;51.910;7.724;2023-01-15T12:52:56;99228.28;;;7.10;78.78
39265;BME280;42646;51.910;7.724;2023-01-15T12:55:30;99228.28;;;7.28;76.82
39265;BME280;42646;51.910;7.724;2023-01-15T12:58:00;99213.84;;;7.22;77.65
39265;BME280;42646;51.910;7.724;2023-01-15T13:00:32;99206.47;;;7.26;78.38
39265;BME280;42646;51.910;7.724;2023-01-15T13:03:16;99208.66;;;7.12;79.04
39265;BME280;42646;51.910;7.724;2023-01-15T13:05:50;99213.47;;;7.17;77.83
39265;BME280;42646;51.910;7.724;2023-01-15T13:08:22;99199.19;;;7.28;77.36
39265;BME280;42646;51.910;7.724;2023-01-15T13:10:53;99205.78;;;7.23;77.87
39265;BME280;42646;51.910;7.724;2023-01-15T13:13:23;99217.66;;;7.19;78.50
39265;BME280;42646;51.910;7.724;2023-01-15T13:16:01;99213.13;;;7.30;78.30
39265;BME280;42646;51.910;7.724;2023-01-15T13:18:37;99212.34;;;7.19;78.39
39265;BME280;42646;51.910;7.724;2023-01-15T13:21:11;99210.38;;;7.21;78.62
39265;BME280;42646;51.910;7.724;2023-01-15T13:23:53;99210.81;;;7.17;79.21
39265;BME280;42646;51.910;7.724;2023-01-15T13:26:47;99216.22;;;7.25;78.48
39265;BME280;42646;51.910;7.724;2023-01-15T13:29:24;99218.69;;;7.27;79.48
39265;BME280;42646;51.910;7.724;2023-01-15T13:32:00;99214.66;;;7.40;78.47
39265;BME280;42646;51.910;7.724;2023-01-15T13:34:36;99205.38;;;7.54;76.15
39265;BME280;42646;51.910;7.724;2023-01-15T13:37:15;99225.34;;;7.48;76.71